Banning, California
Current Conditions -  °F | °C
As of 6:53 PM on Friday 19 Dec 2014 (Local Time) from KPSP Reporting Station
Clear Clear  
Wind Chill: 61°   Ceiling: Unl
Heat Index: 61°   Visibility: 10mi
Dew Point: 42°   Wind: 3mph
Humidity: 50%   Direction: 320°NW
Pressure: 30.17"   Gusts: NA
Location:  33.93°N, 116.87°W
Report Text: KPSP 200253Z 32003KT 10SM CLR 16/06 A3017 RMK AO2 SLP218 T01610056 52003
Loading
Personal Weather Stations






























Interactive Weather Map New forecast layout! Learn more

10-Day Weather Forecast

Advertisements
Track Severe Weather on mobile